Time;durP1;ratioP1;P1;durP2;ratioP2;P2;SDS_P1;SDS_P2;PMS_P1;PMS_P2;Temp;Humidity;BMP_temperature;BMP_pressure;BME280_temperature;BME280_humidity;BME280_pressure;Samples;Min_cycle;Max_cycle;Signal;HPM_P1;HPM_P2
2024/03/25 00:03:18;;;;;;;;;;;;;;;2.90;100.00;94870.19;10481484;28;2818;-64
2024/03/25 00:08:19;;;;;;;;;;;;;;;2.92;100.00;94873.41;10474636;28;2652;-67
2024/03/25 00:13:21;;;;;;;;;;;;;;;2.92;100.00;94878.69;10479941;28;2827;-68
2024/03/25 00:18:24;;;;;;;;;;;;;;;2.94;100.00;94871.31;10475434;28;2750;-71
2024/03/25 00:23:27;;;;;;;;;;;;;;;2.98;100.00;94860.97;10475573;28;2831;-70
2024/03/25 00:28:28;;;;;;;;;;;;;;;3.01;100.00;94875.63;10481620;28;2564;-72
2024/03/25 00:33:30;;;;;;;;;;;;;;;3.00;100.00;94872.19;10480283;28;2894;-72
2024/03/25 00:38:31;;;;;;;;;;;;;;;3.03;100.00;94855.75;10470017;28;2980;-66
2024/03/25 00:43:33;;;;;;;;;;;;;;;2.98;100.00;94856.47;10479193;28;2310;-67
2024/03/25 00:48:34;;;;;;;;;;;;;;;2.97;100.00;94859.38;10484122;28;2674;-70
2024/03/25 00:53:36;;;;;;;;;;;;;;;2.98;100.00;94853.81;10486529;28;2674;-64
2024/03/25 00:58:37;;;;;;;;;;;;;;;2.96;100.00;94858.59;10478608;28;2849;-65
2024/03/25 01:03:39;;;;;;;;;;;;;;;3.01;100.00;94857.06;10480229;28;2810;-65
2024/03/25 01:08:40;;;;;;;;;;;;;;;2.89;100.00;94862.47;10469247;28;2807;-67
2024/03/25 01:13:42;;;;;;;;;;;;;;;2.88;100.00;94844.97;10480063;28;2766;-66
2024/03/25 01:18:43;;;;;;;;;;;;;;;2.92;100.00;94856.66;10482359;28;2922;-66
2024/03/25 01:23:45;;;;;;;;;;;;;;;2.91;100.00;94849.75;10481052;28;2854;-65
2024/03/25 01:28:47;;;;;;;;;;;;;;;2.91;100.00;94847.09;10499908;28;2741;-65
2024/03/25 01:33:49;;;;;;;;;;;;;;;2.91;100.00;94837.28;10466293;28;2736;-65
2024/03/25 01:38:51;;;;;;;;;;;;;;;2.98;100.00;94845.06;10480500;28;2768;-65
2024/03/25 01:43:53;;;;;;;;;;;;;;;2.88;100.00;94847.63;10487350;28;2926;-66
2024/03/25 01:48:58;;;;;;;;;;;;;;;2.91;100.00;94839.13;10484006;28;2897;-65
2024/03/25 01:53:59;;;;;;;;;;;;;;;2.91;100.00;94844.44;10481145;28;2855;-65
2024/03/25 01:59:01;;;;;;;;;;;;;;;2.89;100.00;94857.19;10490194;28;2856;-64
2024/03/25 02:04:03;;;;;;;;;;;;;;;2.87;100.00;94844.16;10485279;28;2776;-66
2024/03/25 02:09:05;;;;;;;;;;;;;;;2.83;100.00;94858.97;10482450;28;2613;-64
2024/03/25 02:14:07;;;;;;;;;;;;;;;2.84;100.00;94855.25;10482839;28;2810;-64
2024/03/25 02:19:12;;;;;;;;;;;;;;;2.75;100.00;94856.75;10488437;28;2791;-65
2024/03/25 02:24:14;;;;;;;;;;;;;;;2.73;100.00;94848.22;10479854;28;2842;-72
2024/03/25 02:29:15;;;;;;;;;;;;;;;2.75;100.00;94846.13;10486695;28;2799;-71
2024/03/25 02:34:17;;;;;;;;;;;;;;;2.82;100.00;94836.13;10482778;28;2804;-69
2024/03/25 02:39:21;;;;;;;;;;;;;;;2.77;100.00;94828.09;10484055;28;2847;-73
2024/03/25 02:44:23;;;;;;;;;;;;;;;2.82;100.00;94845.94;10477720;28;2855;-64
2024/03/25 02:49:25;;;;;;;;;;;;;;;2.72;100.00;94847.41;10481880;28;2809;-67
2024/03/25 02:54:27;;;;;;;;;;;;;;;2.75;100.00;94850.63;10474633;28;2571;-65
2024/03/25 02:59:29;;;;;;;;;;;;;;;2.82;100.00;94848.59;10495607;28;2824;-65
2024/03/25 03:04:31;;;;;;;;;;;;;;;2.84;100.00;94849.16;10476619;28;2809;-69
2024/03/25 03:09:36;;;;;;;;;;;;;;;2.91;100.00;94849.75;10478410;28;2815;-66
2024/03/25 03:14:41;;;;;;;;;;;;;;;2.90;100.00;94859.56;10477804;28;2930;-65
2024/03/25 03:19:43;;;;;;;;;;;;;;;2.95;100.00;94861.50;10476481;28;2860;-66
2024/03/25 03:24:45;;;;;;;;;;;;;;;2.85;100.00;94864.00;10482057;28;3071;-64
2024/03/25 03:29:46;;;;;;;;;;;;;;;2.86;100.00;94868.28;10477513;28;2853;-64
2024/03/25 03:34:48;;;;;;;;;;;;;;;2.92;100.00;94867.28;10474387;28;2910;-65
2024/03/25 03:39:50;;;;;;;;;;;;;;;2.88;100.00;94871.50;10480130;28;2758;-64
2024/03/25 03:44:52;;;;;;;;;;;;;;;2.86;100.00;94873.56;10479038;28;2784;-64
2024/03/25 03:49:54;;;;;;;;;;;;;;;2.81;100.00;94876.19;10473256;28;2725;-64
2024/03/25 03:54:56;;;;;;;;;;;;;;;2.68;100.00;94872.06;10476263;28;2667;-66
2024/03/25 03:59:58;;;;;;;;;;;;;;;2.53;100.00;94880.59;10476999;28;2641;-64
2024/03/25 04:04:59;;;;;;;;;;;;;;;2.36;100.00;94875.34;10486268;28;2645;-65
2024/03/25 04:10:01;;;;;;;;;;;;;;;2.22;100.00;94883.88;10477639;28;2832;-65
2024/03/25 04:15:17;;;;;;;;;;;;;;;2.12;100.00;94877.38;10498667;28;2840;-72
2024/03/25 04:20:18;;;;;;;;;;;;;;;2.03;100.00;94885.97;10459725;28;2747;-64
2024/03/25 04:25:20;;;;;;;;;;;;;;;1.90;100.00;94884.44;10441924;28;2867;-65
2024/03/25 04:30:21;;;;;;;;;;;;;;;1.82;100.00;94893.59;10433791;28;2818;-65
2024/03/25 04:35:23;;;;;;;;;;;;;;;1.73;100.00;94891.59;10419732;28;2920;-64
